createdAt,value
2022-08-20T00:00:48.598Z,100357.34
2022-08-20T00:04:51.258Z,100358.13
2022-08-20T00:08:53.087Z,100353.72
2022-08-20T00:12:55.454Z,100356.22
2022-08-20T00:17:00.035Z,100364.06
2022-08-20T00:21:01.731Z,100360.72
2022-08-20T00:25:06.081Z,100363.41
2022-08-20T00:29:07.723Z,100370.53
2022-08-20T00:33:13.579Z,100367.91
2022-08-20T00:37:15.361Z,100379.28
2022-08-20T00:41:21.576Z,100377.50
2022-08-20T00:45:24.124Z,100379.22
2022-08-20T00:49:29.288Z,100380.91
2022-08-20T00:53:31.592Z,100383.41
2022-08-20T00:57:44.510Z,100395.63
2022-08-20T01:02:02.493Z,100378.19
2022-08-20T01:06:04.512Z,100382.56
2022-08-20T01:10:10.269Z,100391.50
2022-08-20T01:14:52.237Z,100395.03
2022-08-20T01:18:57.577Z,100386.38
2022-08-20T01:23:32.536Z,100376.91
2022-08-20T01:27:35.272Z,100392.69
2022-08-20T01:31:44.731Z,100384.03
2022-08-20T01:35:46.537Z,100390.16
2022-08-20T01:39:48.147Z,100392.78
2022-08-20T01:43:56.473Z,100395.41
2022-08-20T01:47:58.750Z,100389.28
2022-08-20T01:52:07.779Z,100405.75
2022-08-20T01:56:14.242Z,100410.97
2022-08-20T02:00:20.155Z,100416.16
2022-08-20T02:04:25.174Z,100417.84
2022-08-20T02:08:27.201Z,100420.47
2022-08-20T02:12:28.830Z,100424.78
2022-08-20T02:16:34.231Z,100417.81
2022-08-20T02:20:36.495Z,100423.03
2022-08-20T02:24:38.395Z,100427.47
2022-08-20T02:28:41.261Z,100439.72
2022-08-20T02:32:43.536Z,100426.78
2022-08-20T02:36:46.101Z,100436.44
2022-08-20T02:40:49.885Z,100442.50
2022-08-20T02:44:51.718Z,100436.44
2022-08-20T02:48:53.465Z,100431.28
2022-08-20T02:52:55.300Z,100437.38
2022-08-20T02:56:56.881Z,100433.13
2022-08-20T03:00:58.947Z,100432.19
2022-08-20T03:05:00.573Z,100429.56
2022-08-20T03:09:04.943Z,100439.97
2022-08-20T03:13:11.149Z,100427.75
2022-08-20T03:17:12.719Z,100432.94
2022-08-20T03:21:14.804Z,100426.84
2022-08-20T03:25:16.700Z,100426.00
2022-08-20T03:29:18.325Z,100430.44
2022-08-20T03:33:20.393Z,100423.50
2022-08-20T03:37:21.953Z,100431.31
2022-08-20T03:41:24.335Z,100430.50
2022-08-20T03:45:27.704Z,100423.50
2022-08-20T03:49:29.437Z,100432.19
2022-08-20T03:53:31.769Z,100434.81
2022-08-20T03:57:33.914Z,100431.34
2022-08-20T04:01:45.417Z,100419.34
2022-08-20T04:05:48.609Z,100433.19
2022-08-20T04:09:50.204Z,100427.88
2022-08-20T04:13:51.892Z,100425.28
2022-08-20T04:17:54.180Z,100423.56
2022-08-20T04:21:55.864Z,100427.97
2022-08-20T04:25:58.172Z,100443.69
2022-08-20T04:30:03.513Z,100443.78
2022-08-20T04:34:08.769Z,100443.16
2022-08-20T04:38:15.224Z,100443.16
2022-08-20T04:42:16.786Z,100451.88
2022-08-20T04:46:19.241Z,100450.09
2022-08-20T04:50:21.440Z,100443.16
2022-08-20T04:54:22.998Z,100446.53
2022-08-20T04:58:30.229Z,100442.13
2022-08-20T05:02:31.781Z,100442.94
2022-08-20T05:06:33.484Z,100450.72
2022-08-20T05:10:38.169Z,100454.19
2022-08-20T05:14:39.783Z,100462.81
2022-08-20T05:18:44.195Z,100466.31
2022-08-20T05:22:51.344Z,100482.91
2022-08-20T05:26:55.404Z,100480.31
2022-08-20T05:30:57.103Z,100483.69
2022-08-20T05:34:58.965Z,100481.94
2022-08-20T05:39:00.596Z,100495.78
2022-08-20T05:43:04.536Z,100496.53
2022-08-20T05:47:06.623Z,100498.97
2022-08-20T05:51:10.051Z,100507.56
2022-08-20T05:55:14.047Z,100504.00
2022-08-20T05:59:15.641Z,100508.22
2022-08-20T06:03:35.827Z,100501.16
2022-08-20T06:07:38.589Z,100493.44
2022-08-20T06:11:40.197Z,100500.31
2022-08-20T06:15:41.901Z,100506.41
2022-08-20T06:19:46.929Z,100495.09
2022-08-20T06:23:58.718Z,100501.19
2022-08-20T06:28:03.745Z,100504.75
2022-08-20T06:32:05.951Z,100501.13
2022-08-20T06:36:08.094Z,100509.75
2022-08-20T06:40:14.290Z,100512.38
2022-08-20T06:44:16.315Z,100508.78
2022-08-20T06:48:18.185Z,100508.50
2022-08-20T06:52:19.853Z,100508.09
2022-08-20T06:56:33.349Z,100514.84
2022-08-20T07:00:36.683Z,100518.91
2022-08-20T07:04:38.292Z,100512.28
2022-08-20T07:08:40.750Z,100524.38
2022-08-20T07:12:42.595Z,100522.25
2022-08-20T07:16:46.994Z,100529.09
2022-08-20T07:20:49.376Z,100521.66
2022-08-20T07:24:52.360Z,100526.38
2022-08-20T07:28:54.553Z,100524.72
2022-08-20T07:32:57.313Z,100530.13
2022-08-20T07:37:00.570Z,100535.59
2022-08-20T07:41:09.949Z,100537.28
2022-08-20T07:45:13.570Z,100541.72
2022-08-20T07:49:15.145Z,100553.03
2022-08-20T07:53:16.951Z,100558.22
2022-08-20T07:57:18.808Z,100548.53
2022-08-20T08:01:28.366Z,100551.00
2022-08-20T08:05:31.991Z,100549.69
2022-08-20T08:09:34.361Z,100558.84
2022-08-20T08:13:39.239Z,100551.72
2022-08-20T08:17:41.744Z,100560.69
2022-08-20T08:21:44.314Z,100544.91
2022-08-20T08:25:46.554Z,100553.59
2022-08-20T08:29:49.685Z,100557.72
2022-08-20T08:33:52.278Z,100557.31
2022-08-20T08:37:54.170Z,100559.88
2022-08-20T08:41:57.255Z,100559.81
2022-08-20T08:46:04.432Z,100557.19
2022-08-20T08:50:09.730Z,100555.19
2022-08-20T08:54:17.326Z,100556.47
2022-08-20T08:58:18.895Z,100561.00
2022-08-20T09:02:23.477Z,100555.63
2022-08-20T09:06:26.068Z,100543.69
2022-08-20T09:10:27.630Z,100551.22
2022-08-20T09:14:29.322Z,100554.63
2022-08-20T09:18:31.080Z,100548.50
2022-08-20T09:22:33.443Z,100545.38
2022-08-20T09:26:38.936Z,100550.22
2022-08-20T09:30:40.785Z,100541.31
2022-08-20T09:34:46.930Z,100548.25
2022-08-20T09:38:48.540Z,100538.50
2022-08-20T09:42:50.659Z,100536.31
2022-08-20T09:46:52.310Z,100537.00
2022-08-20T09:50:53.990Z,100525.56
2022-08-20T09:55:00.213Z,100520.38
2022-08-20T09:59:03.046Z,100518.41
2022-08-20T10:03:04.742Z,100529.56
2022-08-20T10:07:09.551Z,100521.50
2022-08-20T10:11:11.493Z,100525.31
2022-08-20T10:15:13.269Z,100516.94
2022-08-20T10:19:14.908Z,100510.81
2022-08-20T10:23:16.763Z,100508.91
2022-08-20T10:27:18.412Z,100498.88
2022-08-20T10:31:20.054Z,100501.97
2022-08-20T10:35:21.868Z,100507.13
2022-08-20T10:39:23.460Z,100500.72
2022-08-20T10:43:25.109Z,100493.88
2022-08-20T10:47:29.245Z,100500.00
2022-08-20T10:51:32.502Z,100494.47
2022-08-20T10:55:34.841Z,100493.69
2022-08-20T10:59:41.290Z,100491.19
2022-08-20T11:03:42.929Z,100489.72
2022-08-20T11:07:55.183Z,100478.66
2022-08-20T11:12:01.484Z,100478.09
2022-08-20T11:16:04.711Z,100476.63
2022-08-20T11:20:08.302Z,100474.91
2022-08-20T11:24:09.891Z,100474.97
2022-08-20T11:28:12.899Z,100475.56
2022-08-20T11:32:14.747Z,100477.53
2022-08-20T11:36:16.371Z,100476.03
2022-08-20T11:40:18.504Z,100475.69
2022-08-20T11:44:21.592Z,100472.00
2022-08-20T11:48:23.512Z,100478.66
2022-08-20T11:52:25.945Z,100470.22
2022-08-20T11:56:30.188Z,100470.81
2022-08-20T12:00:33.942Z,100463.38
2022-08-20T12:04:35.775Z,100459.66
2022-08-20T12:08:37.514Z,100459.84
2022-08-20T12:12:39.231Z,100450.91
2022-08-20T12:16:41.022Z,100451.72
2022-08-20T12:20:42.575Z,100453.28
2022-08-20T12:24:44.544Z,100456.53
2022-08-20T12:28:47.510Z,100453.22
2022-08-20T12:32:49.167Z,100446.22
2022-08-20T12:36:50.776Z,100438.94
2022-08-20T12:40:52.361Z,100445.34
2022-08-20T12:44:53.968Z,100439.47
2022-08-20T12:48:55.567Z,100444.16
2022-08-20T12:52:57.629Z,100436.50
2022-08-20T12:56:59.550Z,100429.34
2022-08-20T13:01:01.158Z,100435.06
2022-08-20T13:05:05.188Z,100436.16
2022-08-20T13:09:07.145Z,100436.63
2022-08-20T13:13:08.717Z,100427.03
2022-08-20T13:17:10.730Z,100419.00
2022-08-20T13:21:12.378Z,100415.19
2022-08-20T13:25:14.508Z,100407.63
2022-08-20T13:29:17.555Z,100399.25
2022-08-20T13:33:19.192Z,100396.41
2022-08-20T13:37:25.763Z,100395.59
2022-08-20T13:41:27.657Z,100387.75
2022-08-20T13:45:29.276Z,100380.25
2022-08-20T13:49:34.091Z,100384.22
2022-08-20T13:53:35.887Z,100388.56
2022-08-20T13:57:38.330Z,100374.59
2022-08-20T14:01:40.059Z,100364.16
2022-08-20T14:05:41.695Z,100361.28
2022-08-20T14:09:46.707Z,100368.31
2022-08-20T14:13:48.340Z,100375.75
2022-08-20T14:17:52.898Z,100368.97
2022-08-20T14:21:54.734Z,100366.06
2022-08-20T14:25:56.415Z,100375.50
2022-08-20T14:29:58.786Z,100374.63
2022-08-20T14:34:00.887Z,100370.84
2022-08-20T14:38:02.640Z,100374.44
2022-08-20T14:42:07.401Z,100366.16
2022-08-20T14:46:08.937Z,100367.16
2022-08-20T14:50:15.616Z,100376.59
2022-08-20T14:54:17.270Z,100372.66
2022-08-20T14:58:19.177Z,100381.28
2022-08-20T15:02:20.862Z,100371.81
2022-08-20T15:06:22.602Z,100377.56
2022-08-20T15:10:28.249Z,100371.50
2022-08-20T15:14:29.801Z,100367.25
2022-08-20T15:18:31.967Z,100363.63
2022-08-20T15:22:33.610Z,100370.66
2022-08-20T15:26:35.248Z,100354.97
2022-08-20T15:30:39.115Z,100358.78
2022-08-20T15:34:41.974Z,100354.38
2022-08-20T15:38:43.630Z,100353.09
2022-08-20T15:42:46.677Z,100358.97
2022-08-20T15:46:48.439Z,100350.25
2022-08-20T15:51:02.905Z,100346.75
2022-08-20T15:55:05.528Z,100346.13
2022-08-20T15:59:37.737Z,100347.19
2022-08-20T16:04:16.111Z,100353.25
2022-08-20T16:08:26.998Z,100351.16
2022-08-20T16:12:35.296Z,100344.63
2022-08-20T16:16:57.928Z,100349.22
2022-08-20T16:21:09.036Z,100351.56
2022-08-20T16:25:12.371Z,100354.59
2022-08-20T16:29:24.152Z,100359.06
2022-08-20T16:33:28.548Z,100363.44
2022-08-20T16:37:58.951Z,100370.47
2022-08-20T16:42:05.691Z,100364.00
2022-08-20T16:46:29.776Z,100361.16
2022-08-20T16:50:40.725Z,100361.31
2022-08-20T16:54:45.278Z,100364.97
2022-08-20T16:58:46.897Z,100369.50
2022-08-20T17:02:56.355Z,100366.44
2022-08-20T17:07:01.734Z,100373.13
2022-08-20T17:11:20.402Z,100369.06
2022-08-20T17:15:26.559Z,100376.31
2022-08-20T17:19:31.054Z,100379.88
2022-08-20T17:23:54.641Z,100373.88
2022-08-20T17:27:57.374Z,100382.84
2022-08-20T17:32:10.618Z,100390.31
2022-08-20T17:36:22.366Z,100388.81
2022-08-20T17:40:34.638Z,100395.19
2022-08-20T17:44:41.175Z,100393.69
2022-08-20T17:48:46.468Z,100398.81
2022-08-20T17:52:52.454Z,100405.47
2022-08-20T17:56:59.304Z,100405.16
2022-08-20T18:01:00.927Z,100406.91
2022-08-20T18:05:09.353Z,100403.19
2022-08-20T18:09:17.457Z,100409.03
2022-08-20T18:13:25.553Z,100406.84
2022-08-20T18:18:03.717Z,100411.72
2022-08-20T18:22:16.569Z,100414.78
2022-08-20T18:26:30.847Z,100418.56
2022-08-20T18:30:34.166Z,100424.94
2022-08-20T18:34:40.096Z,100424.25
2022-08-20T18:38:42.362Z,100428.88
2022-08-20T18:42:44.714Z,100430.88
2022-08-20T18:47:01.146Z,100431.16
2022-08-20T18:51:09.065Z,100445.41
2022-08-20T18:55:30.037Z,100457.13
2022-08-20T18:59:37.552Z,100466.22
2022-08-20T19:03:53.570Z,100472.84
2022-08-20T19:07:59.081Z,100478.31
2022-08-20T19:12:14.290Z,100488.91
2022-08-20T19:16:34.460Z,100481.56
2022-08-20T19:20:39.643Z,100487.06
2022-08-20T19:24:44.191Z,100500.31
2022-08-20T19:28:50.902Z,100502.22
2022-08-20T19:32:52.912Z,100512.75
2022-08-20T19:37:09.120Z,100515.47
2022-08-20T19:41:31.495Z,100511.97
2022-08-20T19:45:45.888Z,100517.34
2022-08-20T19:50:12.350Z,100518.31
2022-08-20T19:54:24.042Z,100524.63
2022-08-20T19:58:27.127Z,100523.00
2022-08-20T20:02:31.888Z,100532.72
2022-08-20T20:06:41.405Z,100536.44
2022-08-20T20:10:49.460Z,100539.16
2022-08-20T20:14:53.266Z,100542.78
2022-08-20T20:19:09.482Z,100543.91
2022-08-20T20:23:38.716Z,100543.22
2022-08-20T20:27:54.664Z,100540.78
2022-08-20T20:32:00.575Z,100540.88
2022-08-20T20:36:07.126Z,100537.50
2022-08-20T20:40:25.479Z,100542.84
2022-08-20T20:44:37.141Z,100543.00
2022-08-20T20:48:51.432Z,100536.19
2022-08-20T20:52:55.482Z,100538.09
2022-08-20T20:57:06.549Z,100536.44
2022-08-20T21:01:08.205Z,100531.28
2022-08-20T21:05:11.513Z,100537.47
2022-08-20T21:09:13.188Z,100547.22
2022-08-20T21:13:16.189Z,100550.75
2022-08-20T21:17:21.947Z,100551.69
2022-08-20T21:21:24.078Z,100559.63
2022-08-20T21:25:27.457Z,100574.50
2022-08-20T21:29:32.656Z,100570.34
2022-08-20T21:33:34.692Z,100578.28
2022-08-20T21:37:36.731Z,100571.66
2022-08-20T21:41:39.820Z,100583.19
2022-08-20T21:45:44.525Z,100587.59
2022-08-20T21:49:46.141Z,100586.88
2022-08-20T21:53:47.722Z,100586.97
2022-08-20T21:57:49.569Z,100577.41
2022-08-20T22:01:51.872Z,100586.97
2022-08-20T22:05:53.726Z,100573.28
2022-08-20T22:09:55.295Z,100571.81
2022-08-20T22:13:57.013Z,100577.91
2022-08-20T22:17:58.683Z,100577.91
2022-08-20T22:22:00.774Z,100589.19
2022-08-20T22:26:02.337Z,100578.69
2022-08-20T22:30:05.126Z,100579.56
2022-08-20T22:34:08.666Z,100576.94
2022-08-20T22:38:10.708Z,100575.28
2022-08-20T22:42:12.330Z,100584.00
2022-08-20T22:46:15.079Z,100577.13
2022-08-20T22:50:17.730Z,100587.66
2022-08-20T22:54:22.066Z,100588.59
2022-08-20T22:58:30.911Z,100588.66
2022-08-20T23:02:33.197Z,100599.16
2022-08-20T23:06:34.834Z,100588.00
2022-08-20T23:10:38.718Z,100604.56
2022-08-20T23:14:40.279Z,100602.03
2022-08-20T23:18:41.922Z,100599.47
2022-08-20T23:22:44.748Z,100607.28
2022-08-20T23:26:52.519Z,100600.41
2022-08-20T23:30:55.289Z,100600.44
2022-08-20T23:34:56.892Z,100599.59
2022-08-20T23:38:58.459Z,100596.94
2022-08-20T23:43:00.463Z,100596.94
2022-08-20T23:47:02.694Z,100590.91
2022-08-20T23:51:05.355Z,100593.53
2022-08-20T23:55:07.544Z,100590.97
2022-08-20T23:59:09.160Z,100587.53
